Terminal Aerodrome Forecast
Issued by NWS Wakefield, VA

Home | Current Version | Previous Version | Text Only | Print | Product List | Glossary On
Versions: 1 2 3 4 5 6 7 8 9 10 11 12 13 14 15 16 17 18 19 20 21
000
FTUS41 KAKQ 030329 AAA
TAFSBY
TAF AMD
KSBY 030329Z 0303/0324 VRB02KT 5SM BR SCT050
      TEMPO 0304/0307 2SM BR
     FM030800 00000KT 2SM BR BKN250
     FM031300 33006KT 6SM HZ BKN250=

USA.gov is the U.S. government's official web portal to all federal, state and local government web resources and services.